Time;durP1;ratioP1;P1;durP2;ratioP2;P2;SDS_P1;SDS_P2;PMS_P1;PMS_P2;Temp;Humidity;BMP_temperature;BMP_pressure;BME280_temperature;BME280_humidity;BME280_pressure;Samples;Min_cycle;Max_cycle;Signal;HPM_P1;HPM_P2
2023/06/07 00:02:14;;;;;;;19.65;17.95;;;15.70;99.90;;;;;;5205872;28;20028;-69
2023/06/07 00:04:45;;;;;;;17.10;15.52;;;15.70;99.90;;;;;;5187993;28;20159;-70
2023/06/07 00:07:18;;;;;;;18.08;16.60;;;15.70;99.90;;;;;;5205817;28;20104;-70
2023/06/07 00:09:49;;;;;;;18.30;16.80;;;15.70;99.90;;;;;;5205883;28;20026;-70
2023/06/07 00:12:20;;;;;;;17.88;16.27;;;15.80;99.90;;;;;;5205858;28;20044;-70
2023/06/07 00:14:51;;;;;;;18.25;16.23;;;15.60;99.90;;;;;;5205804;28;20041;-69
2023/06/07 00:17:24;;;;;;;17.50;15.88;;;15.70;99.90;;;;;;5190847;28;20021;-69
2023/06/07 00:19:55;;;;;;;19.20;17.25;;;15.70;99.90;;;;;;5212838;28;20041;-70
2023/06/07 00:22:29;;;;;;;19.38;17.45;;;15.70;99.90;;;;;;5212615;28;20481;-70
2023/06/07 00:25:00;;;;;;;19.60;17.95;;;15.70;99.90;;;;;;5212638;28;20031;-70
2023/06/07 00:27:31;;;;;;;21.30;19.33;;;15.50;99.90;;;;;;5212512;28;20430;-70
2023/06/07 00:30:03;;;;;;;20.83;18.88;;;15.50;99.90;;;;;;5212532;28;20112;-70
2023/06/07 00:32:34;;;;;;;18.33;16.60;;;15.30;99.90;;;;;;5212402;28;20029;-70
2023/06/07 00:35:07;;;;;;;19.35;17.92;;;15.30;99.90;;;;;;5212468;28;20041;-69
2023/06/07 00:37:38;;;;;;;20.92;19.05;;;15.10;99.90;;;;;;5212431;28;20018;-69
2023/06/07 00:40:10;;;;;;;17.92;16.05;;;15.20;99.90;;;;;;5212375;28;20032;-68
2023/06/07 00:42:41;;;;;;;18.67;16.83;;;15.10;99.90;;;;;;5212090;28;20049;-70
2023/06/07 00:45:12;;;;;;;20.83;18.90;;;15.10;99.90;;;;;;5212440;28;20167;-70
2023/06/07 00:47:43;;;;;;;19.45;17.45;;;15.40;99.90;;;;;;5212235;28;20100;-70
2023/06/07 00:50:15;;;;;;;19.90;18.08;;;15.20;99.90;;;;;;5212440;28;20025;-70
2023/06/07 00:52:45;;;;;;;19.95;18.33;;;15.30;99.90;;;;;;5212150;28;20477;-69
2023/06/07 00:55:16;;;;;;;18.92;17.13;;;15.10;99.90;;;;;;5212274;28;20025;-70
2023/06/07 00:57:47;;;;;;;22.38;20.38;;;15.30;99.90;;;;;;5212081;28;20022;-69
2023/06/07 01:00:20;;;;;;;20.67;18.88;;;15.30;99.90;;;;;;5212133;28;20477;-69
2023/06/07 01:02:51;;;;;;;21.98;20.10;;;15.40;99.90;;;;;;5194715;28;20021;-69
2023/06/07 01:05:22;;;;;;;20.33;18.45;;;15.20;99.90;;;;;;5212231;28;20021;-69
2023/06/07 01:07:54;;;;;;;21.92;19.98;;;15.30;99.90;;;;;;5212062;28;20488;-69
2023/06/07 01:10:25;;;;;;;20.50;18.67;;;15.40;99.90;;;;;;5212115;28;20021;-69
2023/06/07 01:12:57;;;;;;;17.48;15.82;;;15.40;99.90;;;;;;5211779;28;20045;-69
2023/06/07 01:15:29;;;;;;;20.25;18.38;;;15.30;99.90;;;;;;5212060;28;20032;-70
2023/06/07 01:18:01;;;;;;;20.83;19.08;;;15.40;99.90;;;;;;5212009;28;20026;-70
2023/06/07 01:20:35;;;;;;;20.63;18.73;;;15.20;99.90;;;;;;5211946;28;20025;-69
2023/06/07 01:23:09;;;;;;;19.33;17.65;;;15.10;99.90;;;;;;5211905;28;20033;-70
2023/06/07 01:25:40;;;;;;;20.92;19.17;;;15.10;99.90;;;;;;5212141;28;20033;-69
2023/06/07 01:28:12;;;;;;;20.20;18.52;;;15.10;99.90;;;;;;5211173;28;20018;-70
2023/06/07 01:30:44;;;;;;;20.17;18.73;;;15.00;99.90;;;;;;5208202;28;20029;-69
2023/06/07 01:33:16;;;;;;;19.65;18.15;;;14.90;99.90;;;;;;5208967;28;20021;-69
2023/06/07 01:35:53;;;;;;;19.85;18.25;;;14.90;99.90;;;;;;5208658;28;20037;-69
2023/06/07 01:38:27;;;;;;;23.95;22.15;;;14.90;99.90;;;;;;5208637;28;20006;-70
2023/06/07 01:41:00;;;;;;;21.77;20.23;;;14.80;99.90;;;;;;5208659;28;20473;-69
2023/06/07 01:43:31;;;;;;;22.48;20.83;;;14.80;99.90;;;;;;5208393;28;20046;-70
2023/06/07 01:46:03;;;;;;;22.80;20.17;;;14.80;99.90;;;;;;5208548;28;20051;-69
2023/06/07 01:48:34;;;;;;;20.55;18.63;;;14.70;99.90;;;;;;5190776;28;20040;-70
2023/06/07 01:51:04;;;;;;;22.90;21.10;;;14.80;99.90;;;;;;5208388;28;20033;-68
2023/06/07 01:53:35;;;;;;;20.33;18.83;;;14.60;99.90;;;;;;5208163;28;20437;-69
2023/06/07 01:56:22;;;;;;;25.13;22.88;;;14.70;99.90;;;;;;5208342;28;20053;-69
2023/06/07 01:59:08;;;;;;;22.90;21.05;;;14.80;99.90;;;;;;5208229;28;20018;-70
2023/06/07 02:01:54;;;;;;;21.70;20.00;;;14.80;99.90;;;;;;5208088;28;20108;-70
2023/06/07 02:04:29;;;;;;;23.60;21.58;;;14.90;99.90;;;;;;5208167;28;20092;-70
2023/06/07 02:07:05;;;;;;;20.20;18.40;;;14.80;99.90;;;;;;5208042;28;20385;-70
2023/06/07 02:09:40;;;;;;;23.25;21.25;;;15.00;99.90;;;;;;5207964;28;20026;-70
2023/06/07 02:12:11;;;;;;;23.95;21.95;;;14.90;99.90;;;;;;5207836;28;20440;-70
2023/06/07 02:14:42;;;;;;;25.65;23.48;;;14.90;99.90;;;;;;5207640;28;20131;-70
2023/06/07 02:17:13;;;;;;;23.17;21.30;;;15.10;99.90;;;;;;5207825;28;20021;-70
2023/06/07 02:19:44;;;;;;;21.13;19.50;;;14.80;99.90;;;;;;5189978;28;20027;-70
2023/06/07 02:22:15;;;;;;;22.95;21.17;;;14.90;99.90;;;;;;5207744;28;20029;-69
2023/06/07 02:24:46;;;;;;;22.58;20.52;;;15.00;99.90;;;;;;5207760;28;20021;-69
2023/06/07 02:27:17;;;;;;;21.83;20.08;;;14.80;99.90;;;;;;5207521;28;20029;-69
2023/06/07 02:29:48;;;;;;;21.65;19.70;;;15.00;99.90;;;;;;5207501;28;20021;-70
2023/06/07 02:32:19;;;;;;;21.30;19.23;;;15.00;99.90;;;;;;5207441;28;20204;-69
2023/06/07 02:34:49;;;;;;;20.48;18.83;;;14.90;99.90;;;;;;5207365;28;20129;-69
2023/06/07 02:37:20;;;;;;;16.67;15.13;;;14.90;99.90;;;;;;5207286;28;20084;-69
2023/06/07 02:39:51;;;;;;;19.23;17.52;;;14.90;99.90;;;;;;5207130;28;20377;-70
2023/06/07 02:42:22;;;;;;;20.33;18.65;;;14.80;99.90;;;;;;5207062;28;20065;-69
2023/06/07 02:44:53;;;;;;;19.35;17.45;;;14.90;99.90;;;;;;5207511;28;20029;-70
2023/06/07 02:47:24;;;;;;;19.00;17.42;;;14.90;99.90;;;;;;5207367;28;20025;-69
2023/06/07 02:49:55;;;;;;;20.85;19.13;;;14.70;99.90;;;;;;5207329;28;20048;-70
2023/06/07 02:52:27;;;;;;;17.83;16.20;;;14.50;99.90;;;;;;5207137;28;20555;-70
2023/06/07 02:54:58;;;;;;;18.67;16.85;;;14.70;99.90;;;;;;5207020;28;20036;-69
2023/06/07 02:57:29;;;;;;;17.02;15.82;;;14.70;99.90;;;;;;5189229;28;20021;-69
2023/06/07 03:00:00;;;;;;;16.58;15.00;;;14.70;99.90;;;;;;5206991;28;20073;-70
2023/06/07 03:02:31;;;;;;;18.30;16.73;;;14.60;99.90;;;;;;5207067;28;20045;-70
2023/06/07 03:05:04;;;;;;;20.75;19.02;;;14.50;99.90;;;;;;5206990;28;20056;-70
2023/06/07 03:07:35;;;;;;;19.00;17.50;;;14.40;99.90;;;;;;5206952;28;20029;-70
2023/06/07 03:10:07;;;;;;;21.58;19.98;;;14.40;99.90;;;;;;5206896;28;20025;-70
2023/06/07 03:12:37;;;;;;;20.63;19.02;;;14.60;99.90;;;;;;5206691;28;20034;-69
2023/06/07 03:15:09;;;;;;;21.52;20.13;;;14.60;99.90;;;;;;5206702;28;20037;-70
2023/06/07 03:17:42;;;;;;;19.20;17.67;;;14.50;99.90;;;;;;5206548;28;20128;-70
2023/06/07 03:20:13;;;;;;;24.08;22.40;;;14.60;99.90;;;;;;5206607;28;20017;-70
2023/06/07 03:22:44;;;;;;;22.98;21.17;;;14.60;99.90;;;;;;5206487;28;20021;-70
2023/06/07 03:25:15;;;;;;;20.00;18.52;;;14.70;99.90;;;;;;5206509;28;20021;-69
2023/06/07 03:27:46;;;;;;;20.65;19.15;;;14.80;99.90;;;;;;5206469;28;20025;-70
2023/06/07 03:30:17;;;;;;;22.52;20.92;;;14.80;99.90;;;;;;5188739;28;20083;-70
2023/06/07 03:32:48;;;;;;;19.90;18.40;;;15.00;99.90;;;;;;5206261;28;20025;-70
2023/06/07 03:35:19;;;;;;;19.55;18.05;;;15.10;99.90;;;;;;5206148;28;20029;-70
2023/06/07 03:37:50;;;;;;;19.63;17.92;;;15.20;99.90;;;;;;5206159;28;20105;-70
2023/06/07 03:40:21;;;;;;;19.25;17.73;;;15.30;99.90;;;;;;5206132;28;20104;-69
2023/06/07 03:42:52;;;;;;;19.52;18.20;;;15.60;99.90;;;;;;5205829;28;20423;-70
2023/06/07 03:45:23;;;;;;;20.25;18.65;;;15.70;99.90;;;;;;5206151;28;20124;-69
2023/06/07 03:47:53;;;;;;;19.63;17.83;;;15.80;99.90;;;;;;5206240;28;20059;-68
2023/06/07 03:50:24;;;;;;;19.38;17.55;;;16.00;99.90;;;;;;5206379;28;20544;-70
2023/06/07 03:52:55;;;;;;;18.55;16.75;;;16.00;99.90;;;;;;5205490;28;20029;-70
2023/06/07 03:55:26;;;;;;;22.08;20.17;;;16.30;99.90;;;;;;5206081;28;20381;-70
2023/06/07 03:57:57;;;;;;;21.38;19.35;;;16.30;99.90;;;;;;5206137;28;20107;-70
2023/06/07 04:00:28;;;;;;;20.65;18.35;;;16.30;99.90;;;;;;5206024;28;20028;-68
2023/06/07 04:02:59;;;;;;;22.40;20.25;;;16.40;99.90;;;;;;5206001;28;20025;-69
2023/06/07 04:05:31;;;;;;;21.80;19.88;;;16.40;99.90;;;;;;5205993;28;20443;-70
2023/06/07 04:08:02;;;;;;;23.45;21.40;;;16.60;99.90;;;;;;5188046;28;20470;-69
2023/06/07 04:10:33;;;;;;;22.98;21.20;;;16.70;99.90;;;;;;5205918;28;20032;-68
2023/06/07 04:13:03;;;;;;;26.00;23.88;;;16.80;99.90;;;;;;5205542;28;20104;-70
2023/06/07 04:15:34;;;;;;;23.20;21.30;;;16.90;99.90;;;;;;5205838;28;20541;-69
2023/06/07 04:18:05;;;;;;;23.63;21.83;;;17.10;99.90;;;;;;5188063;28;20100;-69
2023/06/07 04:20:37;;;;;;;25.27;23.23;;;17.10;99.90;;;;;;5205733;28;20143;-69
2023/06/07 04:23:08;;;;;;;23.77;21.75;;;17.20;99.90;;;;;;5205715;28;20100;-70
2023/06/07 04:25:39;;;;;;;23.58;21.75;;;17.40;99.90;;;;;;5205582;28;20101;-70
2023/06/07 04:28:12;;;;;;;20.45;18.67;;;17.40;99.90;;;;;;5205616;28;20025;-70
2023/06/07 04:30:43;;;;;;;24.77;22.58;;;17.70;99.90;;;;;;5205569;28;20025;-70
2023/06/07 04:33:17;;;;;;;22.10;20.15;;;17.70;99.90;;;;;;5205508;28;20030;-70
2023/06/07 04:35:50;;;;;;;19.83;18.10;;;17.80;99.90;;;;;;5205439;28;20444;-69
2023/06/07 04:38:21;;;;;;;21.40;19.80;;;17.90;99.90;;;;;;5205609;28;20045;-69
2023/06/07 04:40:52;;;;;;;21.20;19.35;;;17.90;99.90;;;;;;5205423;28;20063;-70
2023/06/07 04:43:23;;;;;;;20.17;18.33;;;18.00;99.90;;;;;;5205258;28;20080;-69
2023/06/07 04:45:54;;;;;;;22.92;20.83;;;18.10;99.90;;;;;;5205501;28;20522;-70
2023/06/07 04:48:29;;;;;;;22.27;20.38;;;18.30;99.90;;;;;;5205442;28;20029;-70
2023/06/07 04:51:07;;;;;;;19.95;18.27;;;18.40;99.90;;;;;;5205456;28;20119;-70
2023/06/07 04:53:38;;;;;;;19.90;18.02;;;18.50;99.90;;;;;;5205311;28;20057;-70
2023/06/07 04:56:09;;;;;;;20.75;18.65;;;18.60;99.90;;;;;;5205347;28;20037;-68
2023/06/07 04:58:40;;;;;;;20.85;19.08;;;18.50;99.90;;;;;;5205397;28;20018;-70
2023/06/07 05:01:11;;;;;;;20.45;18.85;;;18.60;99.90;;;;;;5205618;28;20032;-70
2023/06/07 05:03:42;;;;;;;22.70;20.30;;;18.60;99.90;;;;;;5205536;28;20105;-69
2023/06/07 05:06:18;;;;;;;24.83;22.60;;;18.60;99.90;;;;;;5209648;28;20025;-70
2023/06/07 05:08:49;;;;;;;24.25;22.55;;;18.70;99.90;;;;;;5209334;28;20029;-69
2023/06/07 05:11:20;;;;;;;26.00;23.77;;;18.70;99.90;;;;;;5209264;28;20469;-69
2023/06/07 05:13:51;;;;;;;26.58;24.33;;;18.80;99.90;;;;;;5208955;28;20034;-70
2023/06/07 05:16:24;;;;;;;22.70;20.75;;;18.90;99.90;;;;;;5191287;28;20029;-69
2023/06/07 05:18:56;;;;;;;26.02;23.88;;;18.90;99.90;;;;;;5209107;28;20021;-69
2023/06/07 05:21:27;;;;;;;27.10;24.98;;;18.80;99.90;;;;;;5208953;28;20021;-70
2023/06/07 05:23:58;;;;;;;25.58;23.60;;;18.90;99.90;;;;;;5208951;28;20014;-70
2023/06/07 05:26:28;;;;;;;26.58;24.23;;;18.90;99.90;;;;;;5208761;28;20043;-69
2023/06/07 05:29:00;;;;;;;27.38;24.92;;;19.00;99.90;;;;;;5191063;28;20624;-69
2023/06/07 05:31:31;;;;;;;25.25;22.88;;;19.30;99.90;;;;;;5208697;28;20030;-70
2023/06/07 05:34:02;;;;;;;26.38;24.13;;;19.40;99.90;;;;;;5208409;28;20061;-70
2023/06/07 05:36:34;;;;;;;26.98;24.85;;;19.40;99.90;;;;;;5208384;28;20053;-70
2023/06/07 05:39:05;;;;;;;24.73;22.65;;;19.30;99.90;;;;;;5203409;28;20481;-69
2023/06/07 05:41:37;;;;;;;27.25;25.15;;;19.30;99.90;;;;;;5208118;28;20037;-70
2023/06/07 05:44:08;;;;;;;28.92;26.45;;;19.40;99.90;;;;;;5208494;28;20536;-70
2023/06/07 05:46:39;;;;;;;28.30;26.08;;;19.50;99.90;;;;;;5208356;28;20112;-70
2023/06/07 05:49:10;;;;;;;29.25;26.67;;;19.40;99.90;;;;;;5208356;28;20025;-70
2023/06/07 05:51:41;;;;;;;27.95;25.77;;;19.40;99.90;;;;;;5208313;28;20032;-69
2023/06/07 05:54:12;;;;;;;28.17;25.73;;;19.60;99.90;;;;;;5208144;28;20048;-70
2023/06/07 05:56:43;;;;;;;26.85;24.73;;;19.90;99.90;;;;;;5208201;28;20028;-70
2023/06/07 05:59:14;;;;;;;26.30;24.17;;;20.10;99.90;;;;;;5208198;28;20076;-70
2023/06/07 06:01:45;;;;;;;29.98;27.83;;;20.30;99.90;;;;;;5208197;28;20485;-70
2023/06/07 06:04:16;;;;;;;28.73;26.42;;;20.10;99.90;;;;;;5208129;28;20026;-69
2023/06/07 06:06:48;;;;;;;30.75;28.50;;;20.10;99.90;;;;;;5208358;28;20029;-69
2023/06/07 06:09:19;;;;;;;31.33;29.02;;;20.00;99.90;;;;;;5208218;28;20473;-69
2023/06/07 06:11:51;;;;;;;30.77;28.85;;;20.00;99.90;;;;;;5207870;28;20029;-70
2023/06/07 06:14:24;;;;;;;29.85;27.40;;;20.00;99.90;;;;;;5207797;28;20034;-70
2023/06/07 06:16:55;;;;;;;28.40;26.25;;;20.00;99.90;;;;;;5207637;28;20033;-70
2023/06/07 06:19:26;;;;;;;29.95;27.45;;;19.90;99.90;;;;;;5207931;28;20465;-70
2023/06/07 06:21:57;;;;;;;30.65;27.95;;;20.00;99.90;;;;;;5207825;28;20101;-70
2023/06/07 06:24:28;;;;;;;31.67;29.45;;;20.10;99.90;;;;;;5207777;28;20018;-70
2023/06/07 06:26:59;;;;;;;31.60;28.83;;;20.30;99.90;;;;;;5189920;28;20029;-70
2023/06/07 06:29:30;;;;;;;28.88;26.77;;;20.40;99.90;;;;;;5207717;28;20021;-70
2023/06/07 06:32:01;;;;;;;29.38;26.75;;;20.30;99.90;;;;;;5207704;28;20057;-70
2023/06/07 06:34:32;;;;;;;28.92;26.42;;;20.40;99.90;;;;;;5207470;28;20034;-70
2023/06/07 06:37:05;;;;;;;29.27;27.00;;;20.40;99.90;;;;;;5207384;28;20040;-70
2023/06/07 06:39:36;;;;;;;23.70;21.92;;;20.30;99.90;;;;;;5207368;28;20017;-69
2023/06/07 06:42:07;;;;;;;24.55;22.25;;;20.30;99.90;;;;;;5207077;28;20056;-70
2023/06/07 06:44:38;;;;;;;25.83;23.98;;;20.40;99.90;;;;;;5207355;28;20029;-70
2023/06/07 06:47:09;;;;;;;26.20;23.85;;;20.20;99.90;;;;;;5207316;28;20357;-70
2023/06/07 06:49:40;;;;;;;24.25;22.45;;;20.40;99.90;;;;;;5207222;28;20025;-70
2023/06/07 06:52:11;;;;;;;24.95;22.58;;;20.40;99.90;;;;;;5207132;28;20025;-69
2023/06/07 06:54:42;;;;;;;27.63;25.63;;;20.50;99.90;;;;;;5206922;28;20073;-69
2023/06/07 06:57:13;;;;;;;30.67;27.88;;;20.80;99.90;;;;;;5206907;28;20078;-70
2023/06/07 06:59:44;;;;;;;34.75;32.25;;;20.90;99.90;;;;;;5207102;28;20016;-69
2023/06/07 07:02:15;;;;;;;34.40;31.90;;;21.10;99.90;;;;;;5206981;28;20029;-70
2023/06/07 07:04:46;;;;;;;31.30;28.92;;;21.00;99.90;;;;;;5189098;28;20025;-69
2023/06/07 07:07:17;;;;;;;28.40;26.13;;;20.70;99.90;;;;;;5206693;28;20024;-70
2023/06/07 07:09:49;;;;;;;27.98;25.83;;;20.60;99.90;;;;;;5206765;28;20025;-70
2023/06/07 07:12:22;;;;;;;32.72;30.45;;;20.60;99.90;;;;;;5206608;28;20113;-70
2023/06/07 07:14:53;;;;;;;29.75;27.65;;;21.00;99.90;;;;;;5206548;28;20128;-70
2023/06/07 07:17:24;;;;;;;34.00;31.50;;;21.10;99.90;;;;;;5206610;28;20097;-69
2023/06/07 07:19:55;;;;;;;33.10;30.65;;;21.30;99.90;;;;;;5206801;28;20033;-69
2023/06/07 07:22:26;;;;;;;31.98;29.80;;;21.40;99.90;;;;;;5206618;28;20029;-69
2023/06/07 07:24:58;;;;;;;30.80;28.67;;;21.40;99.90;;;;;;5189056;28;20076;-69
2023/06/07 07:27:28;;;;;;;34.45;32.10;;;21.80;99.90;;;;;;5205796;28;20113;-70
2023/06/07 07:30:00;;;;;;;32.22;30.02;;;21.60;99.90;;;;;;5206485;28;20116;-69
2023/06/07 07:32:32;;;;;;;32.08;29.58;;;21.80;99.90;;;;;;5206447;28;20076;-70
2023/06/07 07:35:03;;;;;;;33.78;31.33;;;21.70;99.90;;;;;;5206307;28;20044;-70
2023/06/07 07:37:35;;;;;;;31.45;28.75;;;21.90;99.90;;;;;;5206323;28;20033;-70
2023/06/07 07:40:09;;;;;;;28.65;26.02;;;21.80;99.90;;;;;;5206268;28;20017;-70
2023/06/07 07:42:40;;;;;;;27.52;25.58;;;21.70;99.90;;;;;;5205921;28;20498;-70
2023/06/07 07:45:11;;;;;;;28.73;26.70;;;22.00;99.90;;;;;;5188482;28;20033;-70
2023/06/07 07:47:43;;;;;;;26.65;24.50;;;22.20;99.90;;;;;;5206304;28;20033;-70
2023/06/07 07:50:16;;;;;;;25.73;23.70;;;22.20;99.90;;;;;;5206266;28;20029;-69
2023/06/07 07:52:47;;;;;;;24.58;22.50;;;21.90;99.90;;;;;;5206183;28;20124;-70
2023/06/07 07:55:18;;;;;;;26.48;24.27;;;21.90;99.90;;;;;;5205962;28;20076;-69
2023/06/07 07:57:49;;;;;;;26.77;24.80;;;21.70;99.90;;;;;;5206044;28;20076;-69
2023/06/07 08:00:20;;;;;;;28.48;26.02;;;21.90;99.90;;;;;;5205930;28;20029;-70
2023/06/07 08:02:51;;;;;;;27.63;25.40;;;21.90;99.90;;;;;;5205909;28;20108;-70
2023/06/07 08:05:22;;;;;;;27.35;25.00;;;22.10;99.90;;;;;;5188183;28;20148;-69
2023/06/07 08:07:53;;;;;;;22.73;21.08;;;22.30;99.90;;;;;;5205860;28;20032;-70
2023/06/07 08:10:24;;;;;;;30.10;28.00;;;22.00;99.90;;;;;;5205819;28;20033;-70
2023/06/07 08:12:55;;;;;;;31.00;28.85;;;22.00;99.90;;;;;;5205551;28;20038;-69
2023/06/07 08:15:26;;;;;;;32.55;29.73;;;21.80;99.90;;;;;;5205632;28;20037;-70
2023/06/07 08:17:57;;;;;;;34.15;31.73;;;22.10;99.90;;;;;;5205620;28;20109;-70
2023/06/07 08:20:28;;;;;;;39.08;35.97;;;22.40;99.90;;;;;;5205650;28;20025;-70
2023/06/07 08:22:59;;;;;;;26.67;24.35;;;22.50;99.90;;;;;;5205655;28;20469;-70
2023/06/07 08:25:30;;;;;;;23.65;21.85;;;22.50;99.90;;;;;;5205686;28;20373;-70
2023/06/07 08:28:01;;;;;;;28.38;25.67;;;22.50;99.90;;;;;;5205684;28;20036;-70
2023/06/07 08:30:32;;;;;;;21.58;19.70;;;22.60;99.90;;;;;;5187894;28;20112;-70
2023/06/07 08:33:02;;;;;;;21.27;19.27;;;22.70;99.90;;;;;;5205413;28;20028;-68
2023/06/07 08:35:33;;;;;;;20.95;19.13;;;22.60;99.90;;;;;;5205447;28;20029;-70
2023/06/07 08:38:04;;;;;;;23.65;20.55;;;22.60;99.90;;;;;;5206472;28;20029;-69
2023/06/07 08:40:38;;;;;;;22.13;19.92;;;22.40;99.90;;;;;;5209896;28;20473;-70
2023/06/07 08:43:09;;;;;;;22.65;20.67;;;22.50;99.90;;;;;;5209531;28;20084;-69
2023/06/07 08:45:40;;;;;;;22.77;21.05;;;22.20;99.90;;;;;;5209776;28;20469;-69
2023/06/07 08:48:13;;;;;;;23.55;19.58;;;22.40;99.90;;;;;;5192067;28;20037;-70
2023/06/07 08:50:46;;;;;;;19.67;18.23;;;22.70;99.90;;;;;;5209614;28;20071;-70
2023/06/07 08:53:26;;;;;;;22.17;20.48;;;22.40;99.90;;;;;;5209507;28;20044;-70
2023/06/07 08:55:58;;;;;;;21.52;19.52;;;22.50;99.90;;;;;;5209484;28;20033;-69
2023/06/07 08:58:29;;;;;;;20.33;18.35;;;22.80;99.90;;;;;;5209381;28;20051;-69
2023/06/07 09:01:01;;;;;;;18.70;17.08;;;22.90;99.90;;;;;;5209316;28;20026;-70
2023/06/07 09:03:32;;;;;;;19.98;18.17;;;23.10;99.90;;;;;;5209264;28;20053;-70
2023/06/07 09:06:02;;;;;;;20.27;18.58;;;22.90;99.90;;;;;;5209167;28;20439;-70
2023/06/07 09:08:33;;;;;;;19.67;17.80;;;23.00;99.90;;;;;;5209264;28;20095;-70
2023/06/07 09:11:04;;;;;;;21.10;19.00;;;23.30;99.90;;;;;;5191350;28;20080;-70
2023/06/07 09:13:36;;;;;;;20.73;18.85;;;23.30;99.90;;;;;;5209103;28;20087;-70
2023/06/07 09:16:10;;;;;;;19.20;17.50;;;23.60;99.90;;;;;;5208963;28;20075;-70
2023/06/07 09:18:47;;;;;;;22.38;20.38;;;23.50;99.90;;;;;;5208978;28;20017;-70
2023/06/07 09:21:23;;;;;;;21.63;19.85;;;23.20;99.90;;;;;;5208982;28;20026;-70
2023/06/07 09:23:57;;;;;;;21.35;18.60;;;23.40;99.90;;;;;;5208812;28;20449;-68
2023/06/07 09:26:36;;;;;;;19.05;17.27;;;23.40;99.90;;;;;;5208798;28;20029;-70
2023/06/07 09:29:08;;;;;;;20.10;18.40;;;23.20;99.90;;;;;;5208816;28;20033;-69
2023/06/07 09:31:39;;;;;;;19.65;18.15;;;23.20;99.90;;;;;;5208717;28;20025;-69
2023/06/07 09:34:24;;;;;;;17.73;15.88;;;23.20;99.90;;;;;;5208583;28;20115;-70
2023/06/07 09:36:57;;;;;;;20.70;18.92;;;23.60;99.90;;;;;;5208496;28;20385;-70
2023/06/07 09:39:32;;;;;;;18.60;16.80;;;23.60;99.90;;;;;;5208638;28;20021;-70
2023/06/07 09:42:13;;;;;;;20.83;18.88;;;23.10;99.90;;;;;;5190613;28;20037;-69
2023/06/07 09:44:44;;;;;;;22.13;20.25;;;23.50;99.90;;;;;;5208603;28;20064;-70
2023/06/07 09:47:24;;;;;;;20.42;18.48;;;23.30;99.90;;;;;;5208532;28;20030;-70
2023/06/07 09:50:06;;;;;;;19.85;18.38;;;23.60;99.90;;;;;;5207705;28;20100;-69
2023/06/07 09:52:38;;;;;;;18.52;16.92;;;23.50;99.90;;;;;;5208671;28;20171;-70
2023/06/07 09:55:26;;;;;;;19.70;17.92;;;23.10;99.90;;;;;;5208708;28;20033;-69
2023/06/07 09:57:57;;;;;;;17.55;16.05;;;23.20;99.90;;;;;;5208549;28;20024;-70
2023/06/07 10:00:28;;;;;;;20.80;16.70;;;23.50;99.90;;;;;;5208313;28;20381;-69
2023/06/07 10:03:06;;;;;;;17.73;16.13;;;23.20;99.90;;;;;;5208180;28;20032;-69
2023/06/07 10:05:38;;;;;;;17.27;15.82;;;23.50;99.90;;;;;;5208222;28;20036;-70
2023/06/07 10:08:10;;;;;;;19.08;17.25;;;23.60;99.90;;;;;;5208157;28;20048;-69
2023/06/07 10:10:43;;;;;;;21.25;16.17;;;23.60;99.90;;;;;;5207950;28;20037;-70
2023/06/07 10:13:16;;;;;;;18.15;16.65;;;23.60;99.90;;;;;;5207907;28;20029;-69
2023/06/07 10:15:47;;;;;;;17.75;15.88;;;23.90;99.90;;;;;;5207820;28;20049;-70
2023/06/07 10:18:24;;;;;;;19.50;17.75;;;23.80;99.90;;;;;;5207966;28;20381;-70
2023/06/07 10:21:06;;;;;;;18.92;16.92;;;23.70;99.90;;;;;;5208024;28;20083;-70
2023/06/07 10:23:50;;;;;;;18.35;16.88;;;23.70;99.90;;;;;;5207897;28;20022;-70
2023/06/07 10:26:41;;;;;;;20.40;18.80;;;23.90;99.90;;;;;;5207883;28;20029;-70
2023/06/07 10:29:20;;;;;;;19.75;17.98;;;24.20;99.90;;;;;;5207690;28;20401;-70
2023/06/07 10:32:36;;;;;;;18.98;17.52;;;24.10;99.90;;;;;;5207696;28;20018;-70
2023/06/07 10:35:09;;;;;;;20.88;17.52;;;24.10;99.90;;;;;;5124266;29;20066;-69
2023/06/07 10:37:42;;;;;;;19.98;18.40;;;24.10;99.90;;;;;;5124505;29;20459;-70
2023/06/07 10:40:14;;;;;;;20.60;18.40;;;24.30;99.90;;;;;;5124451;29;20027;-69
2023/06/07 10:42:46;;;;;;;20.02;18.30;;;24.00;99.90;;;;;;5124126;29;20059;-69
2023/06/07 10:45:18;;;;;;;19.17;17.35;;;23.80;99.90;;;;;;5124303;29;20126;-69
2023/06/07 10:47:49;;;;;;;18.02;16.15;;;24.10;99.90;;;;;;5124284;29;20038;-70
2023/06/07 10:50:30;;;;;;;21.02;19.20;;;24.60;99.90;;;;;;5124174;29;20603;-70
2023/06/07 10:53:02;;;;;;;19.20;17.52;;;24.00;99.90;;;;;;5124007;29;20070;-70
2023/06/07 10:55:33;;;;;;;21.08;17.73;;;24.10;99.90;;;;;;5124004;29;20030;-70
2023/06/07 10:58:31;;;;;;;18.73;16.88;;;24.50;99.90;;;;;;5124285;29;20035;-70
2023/06/07 11:01:23;;;;;;;17.80;16.00;;;24.20;99.90;;;;;;5124070;28;20040;-70
2023/06/07 11:03:54;;;;;;;19.50;17.60;;;24.20;99.90;;;;;;5124077;29;20082;-69
2023/06/07 11:06:26;;;;;;;19.25;17.52;;;24.40;99.90;;;;;;5185992;28;20044;-69
2023/06/07 11:09:19;;;;;;;18.55;16.70;;;24.60;99.90;;;;;;5206988;28;20029;-70
2023/06/07 11:11:50;;;;;;;19.77;17.40;;;24.20;99.90;;;;;;5206959;28;20037;-70
2023/06/07 11:14:21;;;;;;;20.17;18.17;;;24.60;99.90;;;;;;5206842;28;20033;-70
2023/06/07 11:16:52;;;;;;;19.20;17.60;;;24.70;99.90;;;;;;5206674;28;20026;-70
2023/06/07 11:19:23;;;;;;;17.77;15.52;;;24.80;99.90;;;;;;5206939;28;20462;-69
2023/06/07 11:22:04;;;;;;;18.63;17.08;;;24.20;99.90;;;;;;5206613;28;20076;-69
2023/06/07 11:24:36;;;;;;;21.20;17.20;;;23.90;99.90;;;;;;5206594;28;20083;-69
2023/06/07 11:27:11;;;;;;;19.13;17.65;;;24.10;99.90;;;;;;5206458;28;20025;-69
2023/06/07 11:29:43;;;;;;;19.40;17.55;;;24.60;99.90;;;;;;5206600;28;20428;-69
2023/06/07 11:32:13;;;;;;;18.40;16.58;;;24.60;99.90;;;;;;5206552;28;20056;-70
2023/06/07 11:34:56;;;;;;;19.50;17.77;;;24.50;99.90;;;;;;5188569;28;20773;-70
2023/06/07 11:37:27;;;;;;;20.15;17.65;;;24.20;99.90;;;;;;5206376;28;20021;-70
2023/06/07 11:40:01;;;;;;;19.10;17.38;;;23.90;99.90;;;;;;5200975;28;20048;-69
2023/06/07 11:42:32;;;;;;;19.27;17.42;;;23.90;99.90;;;;;;5167913;28;20053;-69
2023/06/07 11:45:03;;;;;;;19.05;17.55;;;23.70;99.90;;;;;;5185879;28;20030;-68
2023/06/07 11:47:34;;;;;;;20.17;18.25;;;23.70;99.90;;;;;;5185618;28;20046;-69
2023/06/07 11:50:06;;;;;;;19.10;17.27;;;23.60;99.90;;;;;;5185699;28;20115;-70
2023/06/07 11:52:39;;;;;;;19.48;17.60;;;23.90;99.90;;;;;;5185754;28;20482;-70
2023/06/07 11:55:10;;;;;;;19.42;17.70;;;23.80;99.90;;;;;;5200619;28;20077;-70
2023/06/07 11:57:43;;;;;;;18.42;16.80;;;24.00;99.90;;;;;;5188207;28;20103;-69
2023/06/07 12:00:18;;;;;;;17.33;15.63;;;24.00;99.90;;;;;;5205573;28;20501;-69
2023/06/07 12:02:52;;;;;;;22.83;16.95;;;23.60;99.90;;;;;;5205835;28;20028;-69
2023/06/07 12:05:30;;;;;;;17.63;15.90;;;23.80;99.90;;;;;;5205276;28;20362;-70
2023/06/07 12:08:08;;;;;;;19.05;15.80;;;23.90;99.90;;;;;;5205978;28;20036;-69
2023/06/07 12:10:39;;;;;;;20.50;17.95;;;23.90;99.90;;;;;;5187361;28;20033;-68
2023/06/07 12:13:18;;;;;;;18.92;17.02;;;24.30;99.90;;;;;;5198668;28;20038;-70
2023/06/07 12:15:55;;;;;;;22.55;19.17;;;24.20;99.90;;;;;;5201885;28;20095;-69
2023/06/07 12:18:32;;;;;;;18.65;16.73;;;24.40;99.90;;;;;;5204991;28;20033;-70
2023/06/07 12:21:03;;;;;;;17.77;15.95;;;24.10;99.90;;;;;;5196782;28;20092;-69
2023/06/07 12:23:35;;;;;;;17.70;15.80;;;23.90;99.90;;;;;;5197519;28;20113;-69
2023/06/07 12:26:12;;;;;;;17.33;15.40;;;23.80;99.90;;;;;;5205856;28;20163;-70
2023/06/07 12:28:43;;;;;;;17.38;15.68;;;23.80;99.90;;;;;;5205857;28;20029;-70
2023/06/07 12:31:15;;;;;;;17.13;15.40;;;23.90;99.90;;;;;;5205691;28;20454;-70
2023/06/07 12:34:02;;;;;;;18.35;16.85;;;23.80;99.90;;;;;;5205617;28;20029;-70
2023/06/07 12:36:35;;;;;;;17.67;15.95;;;23.80;99.90;;;;;;5205487;28;20108;-69
2023/06/07 12:39:07;;;;;;;19.05;17.42;;;23.60;99.90;;;;;;5205643;28;20022;-70
2023/06/07 12:41:39;;;;;;;17.58;16.05;;;23.70;99.90;;;;;;5205364;28;20052;-70
2023/06/07 12:44:11;;;;;;;19.00;15.18;;;23.50;99.90;;;;;;5205519;28;20037;-69
2023/06/07 12:46:42;;;;;;;19.42;16.83;;;23.90;99.90;;;;;;5205401;28;20381;-70
2023/06/07 12:49:13;;;;;;;18.45;15.68;;;23.60;99.90;;;;;;5205510;28;20026;-70
2023/06/07 12:51:44;;;;;;;17.98;16.42;;;23.50;99.90;;;;;;5205555;28;20518;-70
2023/06/07 12:54:15;;;;;;;17.38;15.63;;;23.50;99.90;;;;;;5187640;28;20124;-70
2023/06/07 12:56:46;;;;;;;17.92;16.13;;;23.50;99.90;;;;;;5205416;28;20086;-69